イカルイト の空港の天気 - METARとTAF

イカルイト空港 ( CYFB / YFB ) - カナダ ヌナブト準州イカルイト
飛行場実況気象(Metar)
観測時間10/17 23:00 EDT (10/18 03:00 UTC)
風向・風速北西 3m/s
視程10km以上
天気現象
全天の4割程度の雲 雲底高度 4270m
全天の8割程度の雲 雲底高度 6400m
気温-11℃
湿度72%
気圧1007.5hPa
METARCYFB 180300Z 32005KT 15SM SCT140 BKN210 M11/M15 A2974 RMK AS3CI2 SLP075
過去の天気等 Google飛行場航空写真 Wunderground天気予報

過去48時間のMETAR

飛行場予報(TAF)
発表時間: 10/17 19:38 EDT (10/17 23:38 UTC)
予報対象時間: 17日20時 EDT ~ 18日20時 EDT
風向・風速不定 2m/s
視程10km以上
全天の8割程度の雲 雲底高度 2440m
18日14時 EDT から
風向・風速北北西 5m/s
視程10km以上
天気現象弱い雪
全天の8割程度の雲 雲底高度 1830m
全天を覆う雲 雲底高度 2440m
TAF CYFB 172338Z 1800/1824 VRB03KT P6SM BKN080
FM181800 34010KT P6SM -SN BKN060 OVC080 RMK NXT FCST BY 180600Z